Time;durP1;ratioP1;P1;durP2;ratioP2;P2;SDS_P1;SDS_P2;PMS_P1;PMS_P2;Temp;Humidity;BMP_temperature;BMP_pressure;BME280_temperature;BME280_humidity;BME280_pressure;Samples;Min_cycle;Max_cycle;Signal;HPM_P1;HPM_P2
2021/07/31 00:01:42;;;;;;;5.93;3.97;;;;;;;19.51;89.46;97658.84;5075081;28;20208;-62
2021/07/31 00:04:09;;;;;;;4.57;3.37;;;;;;;19.60;87.93;97668.50;5074952;28;20207;-62
2021/07/31 00:06:35;;;;;;;3.80;3.40;;;;;;;19.64;86.50;97676.03;5074663;28;20231;-62
2021/07/31 00:09:02;;;;;;;3.30;3.00;;;;;;;19.73;85.50;97675.00;5074584;28;20575;-62
2021/07/31 00:11:28;;;;;;;3.77;3.20;;;;;;;19.67;85.13;97681.06;5074593;28;20208;-62
2021/07/31 00:13:55;;;;;;;2.90;2.60;;;;;;;19.60;84.66;97682.78;5073139;28;20219;-62
2021/07/31 00:16:21;;;;;;;3.10;2.67;;;;;;;19.58;84.76;97687.44;5074586;28;20211;-62
2021/07/31 00:18:49;;;;;;;3.03;2.73;;;;;;;19.56;83.54;97677.94;5074192;28;20226;-62
2021/07/31 00:21:16;;;;;;;3.63;2.70;;;;;;;19.53;82.43;97691.66;5074189;28;20215;-62
2021/07/31 00:23:42;;;;;;;2.87;2.10;;;;;;;19.64;81.84;97686.75;5074410;28;20214;-61
2021/07/31 00:26:09;;;;;;;3.17;2.23;;;;;;;19.72;80.76;97685.91;5092347;28;20725;-62
2021/07/31 00:28:35;;;;;;;2.30;2.10;;;;;;;19.79;80.31;97689.56;5094580;28;20674;-62
2021/07/31 00:31:02;;;;;;;2.27;1.97;;;;;;;19.87;79.97;97686.88;5094504;28;20213;-61
2021/07/31 00:33:28;;;;;;;2.77;1.87;;;;;;;19.89;78.64;97699.09;5094803;28;20203;-62
2021/07/31 00:35:57;;;;;;;2.30;2.10;;;;;;;19.96;77.92;97693.84;5094129;28;20221;-62
2021/07/31 00:38:24;;;;;;;2.50;2.20;;;;;;;19.86;80.32;97696.75;5094539;28;20231;-61
2021/07/31 00:40:50;;;;;;;3.00;1.97;;;;;;;19.75;82.45;97691.75;5092724;28;20206;-62
2021/07/31 00:43:17;;;;;;;5.07;2.33;;;;;;;19.73;82.54;97680.38;5094484;28;20207;-62
2021/07/31 00:45:43;;;;;;;2.37;2.10;;;;;;;19.78;80.00;97680.69;5094297;28;20209;-62
2021/07/31 00:48:10;;;;;;;2.33;2.03;;;;;;;19.81;79.07;97685.69;5094125;28;20226;-62
2021/07/31 00:50:37;;;;;;;2.73;2.10;;;;;;;19.84;78.19;97687.19;5094180;28;20218;-62
2021/07/31 00:53:05;;;;;;;3.00;2.20;;;;;;;19.84;76.76;97690.72;5094224;28;20584;-61
2021/07/31 00:55:32;;;;;;;2.77;1.70;;;;;;;19.79;76.91;97684.19;5094248;28;20217;-62
2021/07/31 00:57:59;;;;;;;2.87;2.17;;;;;;;19.75;76.80;97690.94;5093770;28;20218;-62
2021/07/31 01:00:26;;;;;;;3.80;1.70;;;;;;;19.71;76.49;97679.72;5093348;28;20213;-62
2021/07/31 01:02:53;;;;;;;2.37;1.80;;;;;;;19.67;76.66;97686.44;5094130;28;20211;-62
2021/07/31 01:05:19;;;;;;;3.47;1.83;;;;;;;19.62;76.26;97686.09;5091980;28;20214;-62
2021/07/31 01:07:46;;;;;;;2.97;1.87;;;;;;;19.49;76.53;97685.81;5093929;28;20261;-62
2021/07/31 01:10:14;;;;;;;2.40;1.90;;;;;;;19.43;77.61;97686.50;5093945;28;20214;-62
2021/07/31 01:12:43;;;;;;;2.73;1.73;;;;;;;19.46;77.67;97691.53;5093514;28;20673;-61
2021/07/31 01:15:11;;;;;;;2.90;1.90;;;;;;;19.46;77.98;97688.84;5093807;28;20219;-61
2021/07/31 01:17:37;;;;;;;2.47;1.90;;;;;;;19.50;77.67;97692.03;5093911;28;20207;-62
2021/07/31 01:20:05;;;;;;;2.03;1.80;;;;;;;19.51;78.01;97693.69;5093609;28;20218;-62
2021/07/31 01:22:33;;;;;;;1.80;1.70;;;;;;;19.51;77.82;97694.50;5093284;28;20677;-62
2021/07/31 01:25:00;;;;;;;2.73;1.80;;;;;;;19.49;78.36;97696.53;5084987;28;20207;-62
2021/07/31 01:27:26;;;;;;;3.00;1.87;;;;;;;19.43;76.87;97697.22;5073118;28;20710;-62
2021/07/31 01:29:52;;;;;;;3.20;1.80;;;;;;;19.39;77.40;97692.38;5073230;28;20207;-62
2021/07/31 01:32:19;;;;;;;3.40;2.20;;;;;;;19.34;77.63;97698.25;5071580;28;20207;-62
2021/07/31 01:34:45;;;;;;;3.27;2.00;;;;;;;19.28;77.38;97693.59;5073332;28;20211;-61
2021/07/31 01:37:12;;;;;;;3.03;1.97;;;;;;;19.24;77.24;97700.28;5073260;28;20332;-62
2021/07/31 01:39:40;;;;;;;2.80;1.90;;;;;;;19.25;77.19;97693.91;5073370;28;20247;-62
2021/07/31 01:42:07;;;;;;;5.40;1.80;;;;;;;19.24;75.64;97697.59;5073269;28;20212;-62
2021/07/31 01:44:34;;;;;;;3.20;1.90;;;;;;;19.24;75.20;97688.72;5073102;28;20246;-62
2021/07/31 01:47:00;;;;;;;2.73;1.80;;;;;;;19.24;75.62;97694.91;5072758;28;20592;-62
2021/07/31 01:49:27;;;;;;;2.20;1.80;;;;;;;19.23;75.29;97701.28;5073207;28;20215;-62
2021/07/31 01:51:53;;;;;;;2.20;1.50;;;;;;;19.24;72.81;97696.75;5073088;28;20207;-62
2021/07/31 01:54:20;;;;;;;2.87;1.80;;;;;;;19.26;71.73;97703.63;5072895;28;20211;-62
2021/07/31 01:56:47;;;;;;;2.50;1.60;;;;;;;19.34;70.13;97698.25;5072346;28;20230;-62
2021/07/31 01:59:14;;;;;;;1.47;1.30;;;;;;;19.35;70.34;97705.28;5072236;28;20238;-62
2021/07/31 02:01:41;;;;;;;1.83;1.37;;;;;;;19.27;69.79;97697.25;5072578;28;20683;-62
2021/07/31 02:04:07;;;;;;;3.97;1.20;;;;;;;19.16;67.81;97694.91;5072748;28;20215;-61
2021/07/31 02:06:34;;;;;;;2.37;1.30;;;;;;;19.09;67.77;97685.84;5072561;28;20222;-61
2021/07/31 02:09:00;;;;;;;3.37;1.40;;;;;;;18.92;67.47;97676.19;5072816;28;20239;-62
2021/07/31 02:11:27;;;;;;;1.60;1.27;;;;;;;18.75;66.57;97681.69;5073719;28;20225;-62
2021/07/31 02:13:54;;;;;;;3.40;1.60;;;;;;;18.52;67.74;97692.22;5077003;28;20581;-62
2021/07/31 02:16:25;;;;;;;1.87;1.27;;;;;;;18.34;67.50;97696.88;5076963;28;20218;-62
2021/07/31 02:18:52;;;;;;;3.43;1.63;;;;;;;18.27;67.67;97700.34;5076754;28;20214;-61
2021/07/31 02:21:18;;;;;;;2.37;1.50;;;;;;;18.17;68.13;97694.31;5076753;28;20215;-61
2021/07/31 02:23:45;;;;;;;1.87;1.23;;;;;;;18.08;67.99;97695.28;5074774;28;20694;-61
2021/07/31 02:26:12;;;;;;;2.27;1.30;;;;;;;18.08;68.55;97689.94;5095047;28;20787;-62
2021/07/31 02:28:38;;;;;;;3.63;1.63;;;;;;;18.03;67.63;97693.09;5096960;28;20230;-61
2021/07/31 02:31:07;;;;;;;2.57;1.20;;;;;;;17.87;68.52;97682.34;5096890;28;20210;-62
2021/07/31 02:33:33;;;;;;;2.40;1.20;;;;;;;17.76;69.09;97690.69;5096862;28;20203;-61
2021/07/31 02:36:03;;;;;;;6.13;1.20;;;;;;;17.75;68.79;97696.19;5096786;28;20573;-61
2021/07/31 02:38:29;;;;;;;2.10;1.20;;;;;;;17.67;69.97;97691.63;5096435;28;20706;-62
2021/07/31 02:40:56;;;;;;;3.90;1.50;;;;;;;17.60;69.82;97693.28;5096692;28;20229;-62
2021/07/31 02:43:22;;;;;;;3.20;1.73;;;;;;;17.56;70.63;97688.41;5096879;28;20215;-62
2021/07/31 02:45:48;;;;;;;1.80;1.20;;;;;;;17.46;71.32;97693.88;5096371;28;20215;-61
2021/07/31 02:48:16;;;;;;;3.03;1.20;;;;;;;17.37;72.36;97694.81;5096154;28;20728;-62
2021/07/31 02:50:43;;;;;;;2.07;1.33;;;;;;;17.31;72.64;97694.59;5094645;28;20207;-61
2021/07/31 02:53:09;;;;;;;3.80;1.30;;;;;;;17.24;72.99;97694.38;5096596;28;20203;-61
2021/07/31 02:55:36;;;;;;;4.50;1.50;;;;;;;17.18;73.71;97700.34;5096573;28;20573;-61
2021/07/31 02:58:03;;;;;;;3.13;1.67;;;;;;;17.10;74.19;97684.28;5096025;28;20211;-61
2021/07/31 03:00:29;;;;;;;3.97;1.40;;;;;;;17.09;74.14;97690.63;5096087;28;20242;-61
2021/07/31 03:02:55;;;;;;;3.03;1.50;;;;;;;17.04;74.34;97684.06;5096414;28;20211;-61
2021/07/31 03:05:23;;;;;;;2.77;1.50;;;;;;;16.99;74.52;97684.53;5096265;28;20238;-61
2021/07/31 03:07:50;;;;;;;2.90;1.27;;;;;;;16.93;75.15;97690.50;5096132;28;20239;-61
2021/07/31 03:10:16;;;;;;;3.17;1.27;;;;;;;16.88;75.73;97689.28;5095867;28;20207;-61
2021/07/31 03:12:43;;;;;;;1.90;1.30;;;;;;;16.85;76.34;97693.13;5096033;28;20206;-62
2021/07/31 03:15:10;;;;;;;1.83;1.40;;;;;;;16.79;76.89;97683.06;5094230;28;20234;-62
2021/07/31 03:17:36;;;;;;;2.27;1.30;;;;;;;16.71;76.93;97685.63;5096164;28;20558;-61
2021/07/31 03:20:04;;;;;;;2.13;1.27;;;;;;;16.69;77.25;97682.28;5095832;28;20207;-61
2021/07/31 03:22:31;;;;;;;2.10;1.40;;;;;;;16.64;76.96;97689.91;5095837;28;20213;-61
2021/07/31 03:24:59;;;;;;;1.70;1.20;;;;;;;16.58;77.69;97679.88;5087399;28;20204;-61
2021/07/31 03:27:26;;;;;;;1.30;1.10;;;;;;;16.52;78.58;97688.47;5075627;28;20231;-61
2021/07/31 03:29:52;;;;;;;2.27;1.50;;;;;;;16.47;78.83;97685.44;5075293;28;20578;-61
2021/07/31 03:32:19;;;;;;;1.87;1.20;;;;;;;16.41;79.79;97688.72;5075569;28;20215;-61
2021/07/31 03:34:45;;;;;;;2.50;1.40;;;;;;;16.35;80.62;97688.47;5075542;28;20210;-61
2021/07/31 03:37:12;;;;;;;1.40;1.20;;;;;;;16.28;81.12;97688.22;5075503;28;20221;-61
2021/07/31 03:39:40;;;;;;;1.53;1.40;;;;;;;16.24;81.26;97692.19;5075613;28;20245;-62
2021/07/31 03:42:07;;;;;;;2.33;1.57;;;;;;;16.20;81.52;97689.97;5073693;28;20211;-63
2021/07/31 03:44:33;;;;;;;3.87;1.40;;;;;;;16.18;81.22;97698.13;5075227;28;20203;-61
2021/07/31 03:47:00;;;;;;;2.47;1.30;;;;;;;16.12;81.60;97694.41;5075232;28;20207;-61
2021/07/31 03:49:26;;;;;;;2.20;1.47;;;;;;;15.98;83.42;97689.56;5075077;28;20234;-61
2021/07/31 03:51:53;;;;;;;1.67;1.50;;;;;;;15.89;84.30;97688.63;5075240;28;20218;-61
2021/07/31 03:54:20;;;;;;;2.90;1.90;;;;;;;15.79;85.14;97693.19;5075122;28;20203;-61
2021/07/31 03:56:47;;;;;;;1.60;1.30;;;;;;;15.70;86.14;97698.56;5075058;28;20207;-61
2021/07/31 03:59:14;;;;;;;2.57;1.70;;;;;;;15.61;86.74;97694.97;5075016;28;20218;-62
2021/07/31 04:01:40;;;;;;;1.53;1.30;;;;;;;15.55;87.12;97698.22;5074661;28;20211;-61
2021/07/31 04:04:07;;;;;;;2.87;1.50;;;;;;;15.53;88.12;97694.03;5074936;28;20574;-61
2021/07/31 04:06:33;;;;;;;1.87;1.33;;;;;;;15.52;88.27;97687.03;5074413;28;20671;-61
2021/07/31 04:09:00;;;;;;;2.30;1.63;;;;;;;15.57;87.33;97692.75;5072758;28;20243;-61
2021/07/31 04:11:26;;;;;;;2.10;1.60;;;;;;;15.58;87.54;97686.44;5074748;28;20578;-62
2021/07/31 04:13:55;;;;;;;2.83;1.80;;;;;;;15.59;88.09;97693.44;5074714;28;20569;-61
2021/07/31 04:16:21;;;;;;;3.27;1.80;;;;;;;15.63;88.39;97700.16;5074627;28;20216;-61
2021/07/31 04:18:48;;;;;;;3.87;1.90;;;;;;;15.73;87.84;97701.78;5074604;28;20281;-61
2021/07/31 04:21:14;;;;;;;2.27;1.40;;;;;;;15.92;86.29;97703.47;5074509;28;20212;-61
2021/07/31 04:23:41;;;;;;;3.53;1.77;;;;;;;16.02;86.03;97706.94;5074109;28;20670;-61
2021/07/31 04:26:15;;;;;;;2.60;1.50;;;;;;;16.07;85.38;97707.34;5092276;28;20211;-61
2021/07/31 04:28:42;;;;;;;3.03;1.70;;;;;;;16.06;85.36;97705.66;5094825;28;20233;-61
2021/07/31 04:31:12;;;;;;;2.93;1.40;;;;;;;16.10;84.58;97705.22;5094538;28;20424;-61
2021/07/31 04:33:39;;;;;;;2.93;1.30;;;;;;;16.13;84.60;97706.75;5092208;28;20211;-61
2021/07/31 04:36:06;;;;;;;2.67;1.40;;;;;;;16.13;84.89;97709.41;5094419;28;20213;-61
2021/07/31 04:38:33;;;;;;;2.67;1.30;;;;;;;16.16;84.12;97705.44;5094215;28;20239;-62
2021/07/31 04:41:00;;;;;;;3.13;1.60;;;;;;;16.50;81.38;97714.47;5094380;28;20218;-61
2021/07/31 04:43:26;;;;;;;3.57;1.60;;;;;;;16.96;79.03;97716.03;5094362;28;20211;-62
2021/07/31 04:45:53;;;;;;;1.50;1.40;;;;;;;17.22;77.28;97711.53;5093929;28;20693;-61
2021/07/31 04:48:21;;;;;;;2.90;1.63;;;;;;;17.13;78.00;97716.00;5093907;28;20238;-61
2021/07/31 04:50:54;;;;;;;4.10;1.53;;;;;;;17.00;78.64;97720.91;5094120;28;20206;-61
2021/07/31 04:53:21;;;;;;;4.17;1.60;;;;;;;16.94;79.42;97724.19;5094208;28;20218;-61
2021/07/31 04:55:47;;;;;;;5.03;1.60;;;;;;;16.91;79.51;97729.88;5094211;28;20215;-61
2021/07/31 04:58:13;;;;;;;3.67;1.50;;;;;;;16.90;80.20;97724.66;5094404;28;20210;-62
2021/07/31 05:00:40;;;;;;;2.20;1.53;;;;;;;16.88;80.63;97718.66;5092341;28;20203;-62
2021/07/31 05:03:06;;;;;;;2.17;1.57;;;;;;;16.90;80.84;97727.34;5093659;28;20222;-62
2021/07/31 05:05:36;;;;;;;4.90;1.80;;;;;;;16.96;80.33;97732.88;5093892;28;20230;-62
2021/07/31 05:08:03;;;;;;;3.13;1.43;;;;;;;17.01;80.52;97741.28;5093922;28;20238;-62
2021/07/31 05:10:29;;;;;;;1.60;1.37;;;;;;;17.09;79.66;97740.50;5093721;28;20693;-62
2021/07/31 05:12:56;;;;;;;3.27;1.60;;;;;;;17.18;81.01;97735.06;5093479;28;20215;-61
2021/07/31 05:15:22;;;;;;;3.77;1.50;;;;;;;17.23;81.75;97730.09;5093650;28;20206;-61
2021/07/31 05:17:49;;;;;;;3.63;1.77;;;;;;;17.30;81.45;97732.97;5093751;28;20204;-62
2021/07/31 05:20:15;;;;;;;3.60;1.73;;;;;;;17.41;81.83;97738.94;5093764;28;20214;-62
2021/07/31 05:22:43;;;;;;;3.00;1.70;;;;;;;17.52;81.64;97744.00;5093357;28;20214;-61
2021/07/31 05:25:11;;;;;;;4.17;2.10;;;;;;;17.66;81.51;97732.72;5081990;28;20209;-63
2021/07/31 05:27:37;;;;;;;3.70;1.70;;;;;;;17.77;80.22;97732.44;5073085;28;20679;-63
2021/07/31 05:30:05;;;;;;;3.03;1.67;;;;;;;17.92;80.01;97741.53;5073186;28;20689;-63
2021/07/31 05:32:31;;;;;;;3.50;2.20;;;;;;;18.30;78.30;97750.84;5072930;28;20694;-63
2021/07/31 05:34:58;;;;;;;2.70;1.57;;;;;;;19.12;74.51;97747.16;5073242;28;20227;-62
2021/07/31 05:37:24;;;;;;;1.73;1.40;;;;;;;20.15;70.16;97744.44;5072784;28;20675;-62
2021/07/31 05:39:52;;;;;;;2.73;1.50;;;;;;;20.99;65.79;97743.44;5072954;28;20239;-62
2021/07/31 05:42:19;;;;;;;2.43;1.60;;;;;;;21.78;62.43;97746.41;5073135;28;20215;-62
2021/07/31 05:44:45;;;;;;;2.93;1.63;;;;;;;22.48;59.48;97752.13;5073048;28;20213;-62
2021/07/31 05:47:11;;;;;;;3.97;1.87;;;;;;;23.10;56.81;97750.53;5072231;28;20226;-61
2021/07/31 05:49:38;;;;;;;2.10;1.70;;;;;;;23.69;55.26;97751.88;5073018;28;20231;-62
2021/07/31 05:52:05;;;;;;;3.13;1.20;;;;;;;24.19;52.54;97744.31;5071455;28;20218;-61
2021/07/31 05:54:32;;;;;;;1.63;1.40;;;;;;;24.60;50.63;97739.75;5072972;28;20211;-61
2021/07/31 05:56:59;;;;;;;3.33;1.50;;;;;;;24.89;48.92;97747.53;5073028;28;20249;-62
2021/07/31 05:59:26;;;;;;;4.20;1.50;;;;;;;25.17;48.10;97745.50;5072776;28;20211;-62
2021/07/31 06:01:52;;;;;;;3.50;1.43;;;;;;;25.41;48.52;97747.63;5072576;28;20675;-62
2021/07/31 06:04:19;;;;;;;2.77;1.60;;;;;;;25.68;47.70;97752.00;5072585;28;20230;-62
2021/07/31 06:06:45;;;;;;;2.70;1.53;;;;;;;26.02;46.70;97749.03;5072550;28;20214;-62
2021/07/31 06:09:11;;;;;;;5.30;1.60;;;;;;;26.26;45.18;97748.34;5072450;28;20242;-62
2021/07/31 06:11:38;;;;;;;2.23;1.40;;;;;;;26.46;45.51;97746.41;5072635;28;20203;-62
2021/07/31 06:14:06;;;;;;;2.17;1.50;;;;;;;26.64;44.62;97751.97;5072885;28;20211;-62
2021/07/31 06:16:33;;;;;;;2.00;1.50;;;;;;;26.66;44.13;97749.91;5072813;28;20579;-62
2021/07/31 06:18:59;;;;;;;2.33;1.47;;;;;;;26.69;43.56;97754.06;5071154;28;20210;-62
2021/07/31 06:21:26;;;;;;;2.77;1.50;;;;;;;26.77;43.88;97757.34;5072694;28;20214;-62
2021/07/31 06:23:52;;;;;;;2.40;1.20;;;;;;;26.95;42.93;97760.16;5072755;28;20287;-62
2021/07/31 06:26:19;;;;;;;5.10;1.60;;;;;;;27.13;42.60;97754.84;5091904;28;20214;-62
2021/07/31 06:28:45;;;;;;;2.67;1.30;;;;;;;27.13;41.78;97762.97;5092881;28;20245;-62
2021/07/31 06:31:13;;;;;;;1.87;1.23;;;;;;;27.16;41.94;97757.16;5092844;28;20233;-62
2021/07/31 06:33:39;;;;;;;3.60;1.40;;;;;;;27.29;41.72;97757.06;5092769;28;20238;-62
2021/07/31 06:36:06;;;;;;;4.30;1.23;;;;;;;27.39;41.67;97762.84;5092797;28;20211;-62
2021/07/31 06:38:32;;;;;;;4.47;1.73;;;;;;;27.51;41.41;97761.06;5092511;28;20230;-62
2021/07/31 06:40:58;;;;;;;4.20;1.50;;;;;;;27.53;40.35;97764.41;5092832;28;20211;-62
2021/07/31 06:43:25;;;;;;;4.27;1.50;;;;;;;27.46;40.27;97760.91;5089701;28;20211;-62
2021/07/31 06:45:53;;;;;;;1.80;1.20;;;;;;;27.39;40.14;97762.84;5090058;28;20211;-61
2021/07/31 06:48:21;;;;;;;3.07;1.30;;;;;;;27.31;39.99;97760.38;5091559;28;20297;-62
2021/07/31 06:50:47;;;;;;;4.30;1.47;;;;;;;27.05;40.57;97755.09;5091806;28;20207;-62
2021/07/31 06:53:14;;;;;;;2.37;1.40;;;;;;;26.62;41.18;97759.50;5090122;28;20214;-62
2021/07/31 06:55:40;;;;;;;3.03;1.50;;;;;;;26.01;43.56;97763.63;5090349;28;20217;-62
2021/07/31 06:58:07;;;;;;;2.70;1.30;;;;;;;24.91;45.98;97761.69;5093349;28;20218;-62
2021/07/31 07:00:33;;;;;;;2.70;1.40;;;;;;;23.81;48.83;97761.09;5094792;28;20740;-62
2021/07/31 07:03:00;;;;;;;5.03;1.90;;;;;;;22.89;51.08;97764.00;5095359;28;20214;-62
2021/07/31 07:05:27;;;;;;;2.10;1.50;;;;;;;22.41;53.26;97756.56;5095295;28;20210;-63
2021/07/31 07:07:54;;;;;;;3.83;1.40;;;;;;;22.15;55.03;97749.00;5094529;28;20214;-63
2021/07/31 07:10:20;;;;;;;3.43;1.47;;;;;;;21.98;55.74;97746.69;5093604;28;20241;-62
2021/07/31 07:12:47;;;;;;;2.83;1.20;;;;;;;21.90;56.50;97742.25;5095518;28;20214;-62
2021/07/31 07:15:13;;;;;;;5.30;1.77;;;;;;;21.83;57.44;97751.25;5094733;28;20557;-62
2021/07/31 07:17:40;;;;;;;3.57;1.57;;;;;;;21.82;57.02;97746.88;5094824;28;20229;-62
2021/07/31 07:20:07;;;;;;;2.67;1.50;;;;;;;21.82;57.26;97741.50;5095226;28;20211;-62
2021/07/31 07:22:35;;;;;;;2.40;1.50;;;;;;;21.91;56.08;97743.91;5095018;28;20571;-62
2021/07/31 07:25:02;;;;;;;2.67;1.90;;;;;;;21.93;56.39;97744.56;5094305;28;20199;-62
2021/07/31 07:27:28;;;;;;;2.77;1.53;;;;;;;21.99;56.54;97741.13;5094839;28;20210;-62
2021/07/31 07:29:55;;;;;;;3.17;1.33;;;;;;;21.91;56.21;97743.91;5095023;28;20234;-63
2021/07/31 07:32:21;;;;;;;2.60;1.60;;;;;;;21.89;56.06;97745.13;5094111;28;20214;-62
2021/07/31 07:34:48;;;;;;;5.33;2.10;;;;;;;21.80;54.89;97739.00;5094614;28;20213;-62
2021/07/31 07:37:14;;;;;;;2.23;1.50;;;;;;;21.77;55.89;97738.53;5093429;28;20243;-62
2021/07/31 07:39:42;;;;;;;2.80;1.47;;;;;;;21.85;55.44;97739.28;5095381;28;20253;-61
2021/07/31 07:42:08;;;;;;;1.90;1.53;;;;;;;21.82;56.37;97742.31;5092374;28;20223;-61
2021/07/31 07:44:35;;;;;;;1.87;1.37;;;;;;;21.86;56.04;97737.41;5094244;28;20211;-62
2021/07/31 07:47:01;;;;;;;2.77;1.53;;;;;;;21.80;55.54;97736.31;5094390;28;20217;-61
2021/07/31 07:49:28;;;;;;;2.73;1.40;;;;;;;21.92;56.07;97737.50;5093759;28;20230;-61
2021/07/31 07:51:55;;;;;;;3.13;1.53;;;;;;;21.91;53.83;97741.22;5093856;28;20211;-62
2021/07/31 07:54:21;;;;;;;2.00;1.30;;;;;;;21.94;54.13;97740.84;5095270;28;20203;-62
2021/07/31 07:56:49;;;;;;;3.27;1.70;;;;;;;21.94;54.56;97738.16;5095002;28;20207;-61
2021/07/31 07:59:15;;;;;;;3.47;1.50;;;;;;;22.10;54.01;97739.81;5095131;28;20210;-62
2021/07/31 08:01:42;;;;;;;3.80;1.67;;;;;;;22.11;53.07;97745.00;5093269;28;20203;-62
2021/07/31 08:04:08;;;;;;;5.17;1.80;;;;;;;22.14;52.72;97747.31;5095146;28;20218;-62
2021/07/31 08:06:37;;;;;;;2.03;1.43;;;;;;;22.16;53.38;97739.91;5094894;28;20222;-62
2021/07/31 08:09:03;;;;;;;2.60;1.37;;;;;;;22.20;53.42;97738.50;5094046;28;20234;-62
2021/07/31 08:11:30;;;;;;;1.47;1.33;;;;;;;22.30;54.30;97736.34;5094738;28;20207;-62
2021/07/31 08:13:57;;;;;;;4.37;1.80;;;;;;;22.39;53.41;97735.22;5094740;28;20207;-62
2021/07/31 08:16:24;;;;;;;2.53;1.43;;;;;;;22.68;53.75;97729.78;5094484;28;20207;-63
2021/07/31 08:18:50;;;;;;;2.73;1.33;;;;;;;22.97;51.95;97735.06;5094561;28;20207;-62
2021/07/31 08:21:17;;;;;;;2.87;1.80;;;;;;;22.96;51.24;97730.69;5094695;28;20214;-61
2021/07/31 08:23:44;;;;;;;2.10;1.67;;;;;;;22.84;52.19;97740.31;5094458;28;20217;-62
2021/07/31 08:26:13;;;;;;;2.17;1.47;;;;;;;22.81;52.00;97729.91;5094542;28;20210;-62
2021/07/31 08:28:40;;;;;;;4.10;1.60;;;;;;;22.80;50.79;97733.63;5092706;28;20214;-62
2021/07/31 08:31:09;;;;;;;3.87;1.80;;;;;;;22.88;51.00;97732.69;5093678;28;20701;-61
2021/07/31 08:33:35;;;;;;;2.93;1.37;;;;;;;23.02;51.17;97732.63;5094540;28;20256;-62
2021/07/31 08:36:03;;;;;;;1.90;1.40;;;;;;;23.11;51.27;97736.84;5094142;28;20211;-62
2021/07/31 08:38:29;;;;;;;3.00;1.37;;;;;;;23.36;49.35;97724.63;5094226;28;20242;-63
2021/07/31 08:40:56;;;;;;;1.60;1.20;;;;;;;23.52;49.32;97728.94;5094391;28;20577;-62
2021/07/31 08:43:23;;;;;;;3.20;1.60;;;;;;;23.81;49.05;97726.84;5094327;28;20211;-61
2021/07/31 08:45:50;;;;;;;1.77;1.20;;;;;;;24.09;48.37;97729.53;5094167;28;20212;-62
2021/07/31 08:48:19;;;;;;;3.47;1.53;;;;;;;24.27;47.74;97730.63;5092295;28;20328;-61
2021/07/31 08:50:47;;;;;;;2.17;1.40;;;;;;;24.07;47.89;97731.59;5091273;28;20237;-62
2021/07/31 08:53:14;;;;;;;5.80;1.67;;;;;;;23.98;48.20;97736.34;5093138;28;20213;-63
2021/07/31 08:55:43;;;;;;;3.03;1.30;;;;;;;24.00;48.65;97739.66;5091580;28;20210;-62
2021/07/31 08:58:10;;;;;;;3.67;1.50;;;;;;;23.74;47.62;97742.16;5090596;28;20678;-61
2021/07/31 09:00:36;;;;;;;2.87;1.37;;;;;;;23.33;48.12;97735.81;5091831;28;20697;-61
2021/07/31 09:03:04;;;;;;;3.93;1.60;;;;;;;23.07;48.96;97740.97;5092806;28;20678;-62
2021/07/31 09:05:35;;;;;;;3.80;1.87;;;;;;;23.03;49.21;97738.84;5092608;28;20206;-63
2021/07/31 09:08:03;;;;;;;2.23;1.47;;;;;;;23.23;50.18;97737.19;5092857;28;20207;-62
2021/07/31 09:10:31;;;;;;;5.20;1.70;;;;;;;23.47;48.42;97739.47;5092803;28;20238;-62
2021/07/31 09:12:59;;;;;;;2.87;1.50;;;;;;;23.48;48.48;97733.88;5092021;28;20207;-61
2021/07/31 09:15:35;;;;;;;2.00;1.50;;;;;;;23.54;49.26;97732.25;5093049;28;20214;-61
2021/07/31 09:18:30;;;;;;;2.43;1.37;;;;;;;23.62;50.21;97729.41;5092653;28;20225;-62
2021/07/31 09:20:59;;;;;;;2.90;1.40;;;;;;;23.89;49.20;97724.00;5090512;28;20682;-62
2021/07/31 09:23:36;;;;;;;3.07;1.60;;;;;;;23.89;47.71;97729.41;5093230;28;20207;-63
2021/07/31 09:26:03;;;;;;;2.90;1.40;;;;;;;23.73;48.01;97727.00;5093517;28;20202;-64
2021/07/31 09:28:30;;;;;;;3.10;1.50;;;;;;;23.81;48.83;97713.34;5093684;28;20214;-64
2021/07/31 09:30:56;;;;;;;3.00;1.30;;;;;;;23.77;46.97;97716.66;5093612;28;20231;-63
2021/07/31 09:33:23;;;;;;;1.90;1.30;;;;;;;23.75;46.38;97718.69;5093525;28;20211;-63
2021/07/31 09:36:00;;;;;;;2.67;1.40;;;;;;;23.69;46.78;97724.88;5093624;28;20218;-62
2021/07/31 09:38:37;;;;;;;4.13;1.50;;;;;;;23.91;47.73;97708.47;5093338;28;20602;-64
2021/07/31 09:41:23;;;;;;;1.87;1.50;;;;;;;24.07;45.78;97712.69;5093657;28;20206;-64
2021/07/31 09:44:00;;;;;;;3.33;1.50;;;;;;;24.20;45.88;97702.78;5093438;28;20260;-64
2021/07/31 09:46:35;;;;;;;3.33;1.30;;;;;;;24.19;45.31;97709.22;5093453;28;20293;-64
2021/07/31 09:49:03;;;;;;;1.97;1.43;;;;;;;24.09;45.05;97700.63;5091795;28;20215;-64
2021/07/31 09:51:34;;;;;;;3.67;1.40;;;;;;;23.95;45.38;97704.31;5093195;28;20218;-64
2021/07/31 09:54:06;;;;;;;2.77;1.60;;;;;;;23.88;45.25;97699.91;5093246;28;20232;-63
2021/07/31 09:56:39;;;;;;;3.60;1.30;;;;;;;23.78;44.29;97702.94;5093246;28;20210;-64
2021/07/31 09:59:06;;;;;;;2.17;1.40;;;;;;;23.53;46.18;97709.84;5093033;28;20207;-64
2021/07/31 10:01:35;;;;;;;2.17;1.20;;;;;;;23.17;46.58;97692.94;5093001;28;20733;-64
2021/07/31 10:04:03;;;;;;;2.17;1.20;;;;;;;22.94;47.96;97697.72;5093094;28;20581;-64
2021/07/31 10:06:31;;;;;;;2.80;1.30;;;;;;;22.83;47.86;97690.16;5091609;28;20696;-64
2021/07/31 10:08:59;;;;;;;2.13;1.43;;;;;;;22.71;47.68;97688.16;5090511;28;20214;-64
2021/07/31 10:11:28;;;;;;;3.37;1.37;;;;;;;22.69;46.30;97696.44;5091893;28;20227;-64
2021/07/31 10:13:55;;;;;;;1.80;1.30;;;;;;;22.54;48.10;97695.66;5090232;28;20214;-64
2021/07/31 10:16:22;;;;;;;2.57;1.30;;;;;;;22.51;47.54;97693.34;5089880;28;20218;-64
2021/07/31 10:19:01;;;;;;;3.23;1.63;;;;;;;22.50;48.07;97688.97;5090216;28;20221;-63
2021/07/31 10:21:29;;;;;;;2.77;1.60;;;;;;;22.54;48.08;97689.41;5091597;28;20206;-63
2021/07/31 10:23:57;;;;;;;2.33;1.30;;;;;;;22.55;47.54;97691.09;5090573;28;20234;-64
2021/07/31 10:26:24;;;;;;;1.97;1.30;;;;;;;22.64;48.55;97684.56;5091321;28;20206;-65
2021/07/31 10:28:52;;;;;;;1.80;1.20;;;;;;;22.59;48.76;97682.44;5090778;28;20214;-63
2021/07/31 10:31:28;;;;;;;2.47;1.50;;;;;;;22.74;50.68;97675.13;5090787;28;20234;-64
2021/07/31 10:33:55;;;;;;;2.57;1.40;;;;;;;22.97;50.80;97686.53;5094970;28;20206;-63
2021/07/31 10:36:29;;;;;;;1.50;1.10;;;;;;;23.28;45.36;97681.63;5095580;28;20207;-64
2021/07/31 10:38:56;;;;;;;3.53;1.77;;;;;;;23.26;46.14;97674.78;5095521;28;20276;-64
2021/07/31 10:41:54;;;;;;;2.10;1.40;;;;;;;23.46;46.68;97692.78;5094681;28;20234;-65
2021/07/31 10:44:22;;;;;;;2.70;1.43;;;;;;;23.59;44.98;97682.06;5096164;28;20211;-64
2021/07/31 10:46:49;;;;;;;5.13;1.60;;;;;;;23.68;45.41;97686.28;5096100;28;20214;-64
2021/07/31 10:49:35;;;;;;;3.00;1.50;;;;;;;23.54;44.99;97689.91;5095931;28;20291;-64
2021/07/31 10:52:01;;;;;;;2.40;1.40;;;;;;;23.51;45.35;97693.03;5095590;28;20724;-65
2021/07/31 10:55:07;;;;;;;1.60;1.30;;;;;;;23.54;44.94;97676.44;5095530;28;20207;-64
2021/07/31 10:58:05;;;;;;;5.27;1.50;;;;;;;23.87;43.23;97684.72;5090556;28;20213;-64
2021/07/31 11:00:34;;;;;;;1.57;1.37;;;;;;;23.76;44.02;97680.72;5095882;28;20351;-66
2021/07/31 11:03:04;;;;;;;2.47;1.40;;;;;;;23.68;44.54;97689.00;5095515;28;20242;-64
2021/07/31 11:06:04;;;;;;;4.53;1.50;;;;;;;23.46;44.74;97690.06;5095204;28;20682;-65
2021/07/31 11:08:32;;;;;;;2.33;1.50;;;;;;;23.49;45.00;97692.41;5092887;28;20226;-63
2021/07/31 11:10:59;;;;;;;4.10;1.50;;;;;;;23.51;45.74;97695.72;5095360;28;20234;-64
2021/07/31 11:13:52;;;;;;;3.37;1.67;;;;;;;23.64;45.85;97694.97;5095822;28;20214;-64
2021/07/31 11:16:20;;;;;;;1.40;1.30;;;;;;;23.68;44.23;97691.69;5095646;28;20272;-65
2021/07/31 11:18:48;;;;;;;1.50;1.40;;;;;;;23.66;45.67;97692.91;5095618;28;20206;-63
2021/07/31 11:21:18;;;;;;;3.13;1.43;;;;;;;23.76;44.37;97683.41;5095421;28;20690;-65
2021/07/31 11:23:47;;;;;;;2.50;1.30;;;;;;;23.90;44.98;97678.97;5095681;28;20210;-64
2021/07/31 11:26:32;;;;;;;2.37;1.30;;;;;;;24.14;43.21;97698.19;5094998;28;20705;-63
2021/07/31 11:28:59;;;;;;;2.13;1.33;;;;;;;24.21;43.12;97680.13;5095391;28;20570;-65
2021/07/31 11:31:26;;;;;;;2.20;1.43;;;;;;;24.17;44.49;97684.28;5095023;28;20237;-64
2021/07/31 11:33:58;;;;;;;3.27;1.80;;;;;;;24.26;45.13;97684.94;5093049;28;20214;-64
2021/07/31 11:36:26;;;;;;;2.83;1.47;;;;;;;24.40;45.27;97679.41;5095319;28;20260;-64
2021/07/31 11:38:53;;;;;;;3.23;1.70;;;;;;;24.47;45.96;97677.53;5095176;28;20598;-64